• Join FlightAware (Why Join?)
  • Login
  • US Flag 
05:38PM EST


 

Airport Tracker/Info


-or-


 

Live Flight TrackerFlight Track Log ✈ CSJ405 ✈ 30-Apr-2013 ✈ KROC - CYHM

Flight Track Log - Related Links

Times and Time Zones

All times are in EDT time to prevent confusion due to time zone crossing. See the CSJ405 flight status page for this flight to view local times or setup timezone preferences in your user account.

Time Position Orientation Groundspeed Altitude Reporting Facility
EDT Latitude Longitude Course Direction KTS MPH feet Rate Location/Type
09:29PM 43.1081 -77.7025 254° West 96 110 1,400  Level Cleveland Center
09:30PM 43.1131 -77.7419 280° West 124 143 2,500 1,080 Climbing Cleveland Center
09:31PM 43.1142 -77.7875 272° West 106 122 3,600 480 Climbing Cleveland Center
09:33PM 43.1167 -77.8833 272° West 171 197 4,000 120 Climbing Buffalo TRACON
09:34PM 43.1167 -77.9500 270° West 173 199 4,000  Level Buffalo TRACON
09:34PM 43.1000 -77.9500 180° South 170 196 4,000  Level Toronto Center
09:35PM 43.1167 -78.0167 289° West 170 196 4,000  Level Toronto Center
09:36PM 43.1167 -78.0500 270° West 170 196 4,000  Level Toronto Center
09:37PM 43.1167 -78.1333 270° West 170 196 4,000  Level Toronto Center
09:38PM 43.1167 -78.2000 270° West 170 196 4,000  Level Toronto Center
09:39PM 43.1167 -78.2667 270° West 170 196 4,000  Level Toronto Center
09:40PM 43.1167 -78.3333 270° West 160 184 4,000  Level Toronto Center
09:41PM 43.1167 -78.3833 270° West 160 184 4,000  Level Toronto Center
09:42PM 43.1167 -78.4500 270° West 170 196 4,000  Level Toronto Center
09:43PM 43.1333 -78.5167 289° West 170 196 4,000  Level Toronto Center
09:44PM 43.1333 -78.5667 270° West 170 196 4,000  Level Toronto Center
09:45PM 43.1333 -78.6333 270° West 160 184 4,000  Level Toronto Center
09:46PM 43.1333 -78.7000 270° West 160 184 4,000  Level Toronto Center
09:47PM 43.1333 -78.7667 270° West 160 184 4,000  Level Toronto Center
09:48PM 43.1500 -78.8333 289° West 170 196 4,000  Level Toronto Center
09:49PM 43.1500 -78.8833 270° West 160 184 4,000  Level Toronto Center
09:50PM 43.1500 -78.9500 270° West 160 184 4,000  Level Toronto Center
09:51PM 43.1500 -79.0000 270° West 160 184 4,000  Level Toronto Center
09:52PM 43.1500 -79.0667 270° West 160 184 4,000  Level Toronto Center
09:53PM 43.1500 -79.1333 270° West 160 184 4,000  Level Toronto Center
09:54PM 43.1500 -79.1833 270° West 160 184 4,000  Level Toronto Center
09:55PM 43.1500 -79.2500 270° West 160 184 4,000  Level Toronto Center
09:56PM 43.1500 -79.3167 270° West 160 184 4,000  Level Toronto Center
09:57PM 43.1500 -79.3667 270° West 160 184 4,000  Level Toronto Center
09:58PM 43.1500 -79.4333 270° West 160 184 4,000  Level Toronto Center
09:59PM 43.1500 -79.5000 270° West 160 184 4,000 -120 Level Toronto Center
10:00PM 43.1667 -79.5500 295° West 160 184 3,800 -120 Descending Toronto Center
10:01PM 43.1667 -79.6167 270° West 160 184 3,800 -60 Level Toronto Center
10:02PM 43.1667 -79.6833 270° West 160 184 3,700 -300 Descending Toronto Center
10:03PM 43.1833 -79.7500 289° West 170 196 3,300 -540 Descending Toronto Center
10:04PM 43.1833 -79.8000 270° West 180 207 2,700 -900 Descending Toronto Center
10:05PM 43.1833 -79.8667 270° West 170 196 1,500 -960 Descending Toronto Center
10:06PM 43.1667 -79.9000 236° Southwest 110 127 800 -720 Descending Toronto Center